Overview Statistics Trail Chart Weather Telemetry Raw packets
 

This is the latest recevied weather packets stored in our database for station/object OK2JV-13. If no packets are shown the sender has not sent any weather packets the latest 10 day(s).

<< 9 10 11 12 13 14 15 >>
Time Temp. Humidity Pressure Rain* Wind** Luminosity Snow
1788526178 24.44° C 49% 1013.3 hPa - - - -
1788525575 24.44° C 49% 1013.1 hPa - - - -
1788524997 24.44° C 49% 1013.4 hPa - - - -
1788524366 23.33° C 50% 1013.5 hPa - - - -
1788523762 22.78° C 51% 1013.5 hPa - - - -
1788523158 22.78° C 51% 1013.6 hPa - - - -
1788522554 22.78° C 51% 1013.9 hPa - - - -
1788521950 22.78° C 51% 1014.2 hPa - - - -
1788521346 22.78° C 51% 1014 hPa - - - -
1788520770 22.78° C 52% 1014.4 hPa - - - -
1788520138 22.78° C 52% 1014.4 hPa - - - -
1788519533 22.78° C 52% 1014.5 hPa - - - -
1788518929 22.22° C 57% 1014.5 hPa - - - -
1788518325 22.22° C 57% 1014.5 hPa - - - -
1788517721 22.22° C 56% 1014.7 hPa - - - -
1788517117 22.22° C 56% 1014.8 hPa - - - -
1788516513 22.22° C 59% 1015 hPa - - - -
1788515909 21.67° C 60% 1015.2 hPa - - - -
1788515304 21.11° C 61% 1015.1 hPa - - - -
1788514701 21.11° C 61% 1015.3 hPa - - - -
1788514097 20.56° C 64% 1015.4 hPa - - - -
1788513492 19.44° C 68% 1015.3 hPa - - - -
1788512888 19.44° C 69% 1015.4 hPa - - - -
1788512284 18.89° C 71% 1015.5 hPa - - - -
1788511680 18.33° C 71% 1015.6 hPa - - - -

* Rain since midnight (hover to see other rain measurements)
** Current wind speed in m/s (hover to see current wind gust speed)